createdAt,value
2019-05-17T00:00:16.780Z,86.20
2019-05-17T00:02:46.430Z,86.40
2019-05-17T00:05:13.685Z,86.50
2019-05-17T00:07:40.959Z,87.30
2019-05-17T00:10:09.088Z,87.00
2019-05-17T00:12:36.953Z,87.60
2019-05-17T00:15:06.949Z,88.00
2019-05-17T00:17:33.941Z,88.10
2019-05-17T00:20:01.233Z,88.70
2019-05-17T00:22:28.565Z,88.60
2019-05-17T00:24:56.853Z,89.50
2019-05-17T00:27:26.365Z,89.60
2019-05-17T00:29:53.597Z,89.70
2019-05-17T00:32:20.916Z,89.50
2019-05-17T00:34:48.186Z,89.30
2019-05-17T00:37:17.439Z,89.50
2019-05-17T00:39:47.011Z,90.00
2019-05-17T00:42:13.988Z,90.50
2019-05-17T00:44:41.280Z,90.20
2019-05-17T00:47:08.530Z,90.30
2019-05-17T00:49:37.180Z,90.10
2019-05-17T00:52:07.031Z,90.20
2019-05-17T00:54:36.106Z,90.30
2019-05-17T00:57:07.269Z,90.20
2019-05-17T00:59:34.063Z,90.00
2019-05-17T01:02:01.379Z,90.10
2019-05-17T01:04:28.622Z,90.20
2019-05-17T01:06:56.367Z,90.70
2019-05-17T01:09:23.775Z,90.80
2019-05-17T01:11:51.331Z,90.80
2019-05-17T01:14:18.620Z,90.80
2019-05-17T01:16:47.511Z,90.70
2019-05-17T01:19:16.406Z,90.60
2019-05-17T01:21:43.865Z,90.70
2019-05-17T01:24:11.171Z,90.80
2019-05-17T01:26:38.491Z,90.80
2019-05-17T01:29:06.705Z,90.90
2019-05-17T01:31:34.380Z,91.00
2019-05-17T01:34:01.717Z,91.10
2019-05-17T01:36:29.047Z,91.10
2019-05-17T01:38:57.658Z,91.30
2019-05-17T01:41:26.633Z,91.30
2019-05-17T01:43:54.168Z,91.30
2019-05-17T01:46:21.494Z,91.30
2019-05-17T01:48:48.793Z,91.50
2019-05-17T01:51:16.897Z,91.60
2019-05-17T01:53:46.823Z,91.50
2019-05-17T01:56:13.678Z,91.70
2019-05-17T01:58:41.154Z,91.70
2019-05-17T02:01:08.525Z,91.80
2019-05-17T02:03:37.463Z,91.70
2019-05-17T02:06:07.220Z,91.60
2019-05-17T02:08:34.318Z,91.70
2019-05-17T02:11:01.920Z,91.80
2019-05-17T02:13:29.268Z,91.90
2019-05-17T02:15:56.625Z,91.70
2019-05-17T02:18:26.433Z,92.30
2019-05-17T02:20:53.437Z,91.90
2019-05-17T02:23:20.745Z,92.20
2019-05-17T02:25:48.048Z,92.70
2019-05-17T02:28:15.416Z,92.80
2019-05-17T02:30:44.208Z,93.00
2019-05-17T02:33:12.627Z,93.00
2019-05-17T02:35:42.881Z,93.20
2019-05-17T02:38:09.527Z,94.10
2019-05-17T02:40:36.901Z,94.10
2019-05-17T02:43:04.277Z,94.10
2019-05-17T02:45:32.765Z,94.00
2019-05-17T02:48:03.747Z,94.20
2019-05-17T02:50:32.755Z,94.20
2019-05-17T02:52:59.126Z,94.70
2019-05-17T02:55:26.415Z,94.90
2019-05-17T02:57:53.747Z,94.70
2019-05-17T03:00:23.930Z,95.10
2019-05-17T03:02:53.654Z,95.00
2019-05-17T03:05:23.283Z,95.00
2019-05-17T03:07:52.767Z,95.00
2019-05-17T03:10:27.516Z,94.90
2019-05-17T03:12:48.587Z,95.00
2019-05-17T03:15:15.905Z,95.00
2019-05-17T03:17:43.923Z,95.00
2019-05-17T03:20:13.192Z,94.90
2019-05-17T03:22:44.236Z,94.80
2019-05-17T03:25:13.234Z,95.00
2019-05-17T03:27:42.544Z,94.70
2019-05-17T03:30:09.499Z,95.00
2019-05-17T03:32:37.427Z,95.20
2019-05-17T03:35:06.659Z,95.30
2019-05-17T03:37:37.901Z,95.10
2019-05-17T03:40:21.712Z,94.80
2019-05-17T03:42:33.341Z,95.20
2019-05-17T03:45:02.865Z,95.20
2019-05-17T03:47:33.151Z,95.40
2019-05-17T03:50:02.790Z,95.50
2019-05-17T03:52:28.708Z,95.70
2019-05-17T03:54:56.048Z,95.70
2019-05-17T03:57:24.038Z,95.40
2019-05-17T03:59:52.456Z,95.60
2019-05-17T04:02:22.813Z,95.60
2019-05-17T04:04:49.343Z,95.80
2019-05-17T04:07:16.675Z,95.60
2019-05-17T04:09:43.978Z,95.90
2019-05-17T04:12:13.598Z,95.70
2019-05-17T04:14:42.955Z,95.70
2019-05-17T04:17:12.859Z,95.50
2019-05-17T04:19:42.398Z,95.50
2019-05-17T04:22:08.506Z,95.70
2019-05-17T04:24:35.830Z,95.40
2019-05-17T04:27:03.837Z,95.30
2019-05-17T04:29:33.170Z,95.50
2019-05-17T04:32:03.582Z,95.30
2019-05-17T04:34:33.233Z,95.10
2019-05-17T04:36:59.124Z,95.40
2019-05-17T04:39:26.555Z,95.30
2019-05-17T04:41:54.987Z,95.10
2019-05-17T04:44:23.241Z,95.00
2019-05-17T04:46:53.411Z,94.90
2019-05-17T04:49:24.033Z,94.90
2019-05-17T04:51:52.393Z,94.80
2019-05-17T04:54:18.885Z,94.80
2019-05-17T04:56:46.229Z,94.50
2019-05-17T04:59:14.101Z,94.30
2019-05-17T05:01:43.561Z,94.20
2019-05-17T05:04:10.890Z,94.60
2019-05-17T05:06:38.174Z,94.10
2019-05-17T05:09:06.298Z,94.20
2019-05-17T05:11:33.706Z,94.10
2019-05-17T05:14:02.743Z,93.90
2019-05-17T05:16:32.051Z,93.70
2019-05-17T05:19:02.624Z,93.50
2019-05-17T05:21:32.065Z,93.50
2019-05-17T05:23:58.324Z,93.00
2019-05-17T05:26:25.662Z,92.10
2019-05-17T05:28:53.083Z,92.00
2019-05-17T05:31:22.615Z,91.90
2019-05-17T05:33:52.130Z,91.90
2019-05-17T05:36:18.974Z,91.50
2019-05-17T05:38:51.539Z,91.20
2019-05-17T05:41:19.241Z,90.50
2019-05-17T05:43:46.557Z,90.00
2019-05-17T05:46:13.927Z,88.60
2019-05-17T05:48:41.740Z,88.70
2019-05-17T05:51:09.340Z,87.20
2019-05-17T05:53:36.709Z,86.90
2019-05-17T05:56:04.186Z,86.30
2019-05-17T05:58:32.206Z,86.30
2019-05-17T06:01:02.202Z,85.20
2019-05-17T06:03:29.144Z,84.00
2019-05-17T06:05:56.802Z,83.90
2019-05-17T06:08:25.409Z,83.10
2019-05-17T06:10:53.340Z,80.60
2019-05-17T06:13:21.868Z,78.00
2019-05-17T06:15:52.321Z,77.80
2019-05-17T06:18:22.846Z,74.80
2019-05-17T06:20:52.303Z,74.30
2019-05-17T06:25:48.252Z,70.40
2019-05-17T06:28:15.602Z,69.60
2019-05-17T06:30:43.355Z,71.80
2019-05-17T06:33:11.980Z,72.10
2019-05-17T06:35:42.206Z,69.60
2019-05-17T06:38:11.798Z,69.20
2019-05-17T06:40:38.534Z,67.80
2019-05-17T06:43:05.878Z,68.10
2019-05-17T06:45:34.582Z,67.20
2019-05-17T06:48:02.489Z,65.30
2019-05-17T06:50:32.577Z,65.40
2019-05-17T06:52:59.312Z,63.70
2019-05-17T06:55:26.665Z,64.10
2019-05-17T06:57:53.972Z,60.10
2019-05-17T07:00:25.269Z,59.70
2019-05-17T07:02:55.472Z,58.80
2019-05-17T07:05:26.663Z,57.70
2019-05-17T07:07:54.211Z,58.10
2019-05-17T07:10:21.833Z,58.60
2019-05-17T07:12:58.284Z,57.70
2019-05-17T07:15:19.829Z,57.80
2019-05-17T07:17:47.248Z,59.30
2019-05-17T07:20:14.542Z,58.40
2019-05-17T07:25:10.861Z,57.10
2019-05-17T07:27:42.685Z,56.80
2019-05-17T07:30:09.933Z,56.20
2019-05-17T07:32:40.683Z,55.20
2019-05-17T07:35:10.426Z,55.10
2019-05-17T07:37:39.544Z,55.60
2019-05-17T07:40:07.464Z,55.60
2019-05-17T07:42:34.825Z,54.10
2019-05-17T07:45:02.337Z,55.40
2019-05-17T07:47:29.673Z,55.50
2019-05-17T07:49:56.981Z,55.30
2019-05-17T07:52:24.345Z,54.70
2019-05-17T07:54:51.669Z,55.60
2019-05-17T07:57:24.092Z,54.20
2019-05-17T07:59:51.436Z,52.70
2019-05-17T08:02:19.813Z,53.00
2019-05-17T08:07:16.568Z,50.90
2019-05-17T08:09:43.935Z,51.00
2019-05-17T08:12:11.445Z,49.60
2019-05-17T08:14:40.061Z,50.00
2019-05-17T08:17:07.634Z,50.80
2019-05-17T08:19:34.950Z,49.50
2019-05-17T08:22:02.327Z,48.50
2019-05-17T08:24:30.315Z,49.10
2019-05-17T08:26:59.948Z,48.90
2019-05-17T08:29:29.598Z,47.90
2019-05-17T08:31:56.397Z,45.80
2019-05-17T08:34:23.782Z,45.00
2019-05-17T08:36:51.172Z,46.40
2019-05-17T08:39:19.823Z,47.00
2019-05-17T08:41:49.631Z,46.20
2019-05-17T08:44:16.444Z,47.00
2019-05-17T08:46:43.771Z,43.60
2019-05-17T08:49:11.125Z,43.80
2019-05-17T08:51:39.706Z,43.40
2019-05-17T08:54:07.209Z,43.90
2019-05-17T08:56:34.544Z,42.80
2019-05-17T08:59:02.217Z,43.40
2019-05-17T09:01:30.158Z,44.60
2019-05-17T09:03:59.682Z,44.70
2019-05-17T09:06:29.175Z,44.90
2019-05-17T09:08:56.208Z,44.70
2019-05-17T09:11:23.508Z,44.50
2019-05-17T09:13:58.073Z,44.60
2019-05-17T09:18:49.640Z,45.60
2019-05-17T09:21:16.995Z,44.20
2019-05-17T09:23:44.313Z,43.30
2019-05-17T09:26:11.645Z,43.40
2019-05-17T09:28:39.416Z,45.10
2019-05-17T09:31:06.952Z,42.60
2019-05-17T09:33:34.305Z,45.10
2019-05-17T09:36:01.640Z,44.40
2019-05-17T09:38:29.535Z,43.10
2019-05-17T09:40:57.064Z,44.30
2019-05-17T09:43:24.423Z,43.80
2019-05-17T09:45:51.773Z,41.50
2019-05-17T09:48:19.665Z,43.00
2019-05-17T09:50:47.124Z,43.10
2019-05-17T09:53:14.437Z,43.40
2019-05-17T09:55:41.824Z,44.20
2019-05-17T09:58:09.816Z,43.10
2019-05-17T10:00:37.746Z,42.30
2019-05-17T10:03:05.089Z,43.20
2019-05-17T10:05:32.699Z,42.60
2019-05-17T10:08:00.172Z,41.40
2019-05-17T10:10:27.465Z,41.20
2019-05-17T10:12:54.808Z,39.50
2019-05-17T10:15:22.260Z,39.80
2019-05-17T10:17:49.627Z,40.80
2019-05-17T10:20:16.932Z,40.10
2019-05-17T10:22:44.285Z,38.00
2019-05-17T10:25:11.661Z,38.60
2019-05-17T10:27:40.627Z,37.80
2019-05-17T10:30:10.270Z,39.50
2019-05-17T10:32:40.628Z,40.40
2019-05-17T10:35:07.217Z,41.50
2019-05-17T10:37:34.585Z,40.20
2019-05-17T10:40:01.927Z,39.60
2019-05-17T10:42:30.619Z,39.60
2019-05-17T10:44:59.964Z,40.10
2019-05-17T10:47:29.936Z,38.70
2019-05-17T10:49:56.681Z,38.60
2019-05-17T10:52:23.996Z,37.30
2019-05-17T10:54:51.341Z,39.90
2019-05-17T10:57:19.419Z,38.00
2019-05-17T10:59:46.972Z,37.40
2019-05-17T11:02:14.265Z,37.80
2019-05-17T11:04:41.810Z,39.00
2019-05-17T11:07:10.538Z,38.60
2019-05-17T11:09:40.203Z,37.80
2019-05-17T11:12:07.345Z,38.50
2019-05-17T11:14:48.961Z,37.70
2019-05-17T11:17:04.069Z,39.20
2019-05-17T11:19:31.662Z,38.20
2019-05-17T11:21:59.001Z,38.10
2019-05-17T11:24:26.857Z,36.50
2019-05-17T11:26:54.201Z,38.70
2019-05-17T11:29:21.517Z,36.20
2019-05-17T11:34:16.344Z,36.80
2019-05-17T11:36:43.724Z,34.20
2019-05-17T11:39:11.084Z,36.10
2019-05-17T11:41:38.446Z,33.60
2019-05-17T11:44:05.789Z,34.50
2019-05-17T11:46:36.238Z,37.00
2019-05-17T11:49:02.356Z,35.60
2019-05-17T11:51:29.734Z,36.30
2019-05-17T11:53:57.414Z,37.30
2019-05-17T11:56:24.785Z,36.80
2019-05-17T11:58:52.138Z,36.90
2019-05-17T12:01:19.505Z,35.60
2019-05-17T12:03:46.826Z,36.60
2019-05-17T12:06:14.230Z,34.40
2019-05-17T12:08:41.601Z,35.60
2019-05-17T12:11:08.954Z,34.00
2019-05-17T12:13:36.177Z,34.10
2019-05-17T12:16:03.714Z,34.60
2019-05-17T12:18:31.516Z,34.40
2019-05-17T12:20:58.850Z,33.80
2019-05-17T12:23:26.165Z,35.40
2019-05-17T12:25:53.520Z,35.90
2019-05-17T12:28:21.060Z,34.90
2019-05-17T12:30:48.953Z,32.60
2019-05-17T12:33:16.299Z,36.00
2019-05-17T12:35:43.820Z,34.70
2019-05-17T12:38:11.290Z,34.60
2019-05-17T12:40:38.870Z,35.20
2019-05-17T12:43:06.200Z,32.40
2019-05-17T12:45:33.574Z,35.20
2019-05-17T12:48:00.904Z,33.30
2019-05-17T12:50:28.233Z,33.60
2019-05-17T12:52:55.644Z,33.40
2019-05-17T12:55:22.973Z,33.30
2019-05-17T12:57:50.365Z,32.50
2019-05-17T13:00:18.587Z,32.40
2019-05-17T13:02:45.920Z,33.00
2019-05-17T13:05:13.289Z,32.80
2019-05-17T13:07:40.774Z,32.30
2019-05-17T13:10:09.218Z,33.60
2019-05-17T13:12:36.601Z,31.50
2019-05-17T13:15:04.942Z,33.10
2019-05-17T13:17:32.612Z,31.00
2019-05-17T13:19:59.932Z,32.50
2019-05-17T13:22:27.477Z,32.10
2019-05-17T13:24:54.851Z,32.50
2019-05-17T13:27:22.258Z,34.20
2019-05-17T13:29:49.593Z,32.10
2019-05-17T13:32:16.950Z,31.80
2019-05-17T13:34:44.280Z,32.10
2019-05-17T13:37:11.633Z,31.80
2019-05-17T13:39:39.266Z,30.90
2019-05-17T13:42:06.694Z,31.50
2019-05-17T13:44:34.097Z,32.20
2019-05-17T13:47:01.397Z,32.40
2019-05-17T13:49:28.825Z,31.90
2019-05-17T13:51:56.141Z,30.70
2019-05-17T13:54:23.480Z,30.10
2019-05-17T13:56:51.066Z,29.70
2019-05-17T13:59:18.514Z,30.90
2019-05-17T14:01:45.869Z,29.80
2019-05-17T14:04:13.257Z,30.30
2019-05-17T14:06:41.191Z,30.80
2019-05-17T14:09:08.547Z,31.10
2019-05-17T14:11:35.907Z,31.50
2019-05-17T14:14:03.332Z,31.90
2019-05-17T14:16:34.165Z,30.00
2019-05-17T14:19:00.309Z,30.20
2019-05-17T14:21:28.826Z,30.40
2019-05-17T14:23:56.196Z,31.90
2019-05-17T14:26:23.619Z,32.90
2019-05-17T14:28:50.957Z,34.90
2019-05-17T14:31:18.291Z,32.20
2019-05-17T14:33:45.631Z,33.20
2019-05-17T14:36:13.126Z,33.10
2019-05-17T14:38:40.449Z,33.50
2019-05-17T14:41:08.890Z,33.20
2019-05-17T14:43:36.599Z,32.80
2019-05-17T14:46:03.953Z,32.50
2019-05-17T14:48:31.256Z,33.70
2019-05-17T14:50:58.641Z,34.20
2019-05-17T14:53:25.938Z,33.60
2019-05-17T14:55:53.295Z,31.70
2019-05-17T14:58:20.602Z,32.60
2019-05-17T15:00:47.920Z,33.50
2019-05-17T15:03:15.387Z,34.40
2019-05-17T15:05:42.833Z,34.50
2019-05-17T15:08:10.229Z,32.90
2019-05-17T15:10:37.849Z,32.70
2019-05-17T15:13:05.210Z,33.40
2019-05-17T15:15:32.512Z,32.50
2019-05-17T15:17:59.847Z,32.60
2019-05-17T15:20:27.177Z,32.50
2019-05-17T15:22:54.545Z,32.10
2019-05-17T15:25:21.954Z,33.60
2019-05-17T15:27:49.297Z,35.10
2019-05-17T15:30:17.013Z,35.90
2019-05-17T15:32:44.389Z,34.10
2019-05-17T15:35:11.800Z,33.10
2019-05-17T15:37:39.114Z,31.40
2019-05-17T15:40:06.893Z,30.00
2019-05-17T15:42:43.616Z,31.70
2019-05-17T15:45:04.310Z,32.40
2019-05-17T15:47:31.726Z,30.90
2019-05-17T15:49:59.122Z,30.60
2019-05-17T15:52:26.520Z,32.00
2019-05-17T15:54:53.963Z,30.90
2019-05-17T15:57:21.313Z,33.00
2019-05-17T15:59:48.624Z,31.30
2019-05-17T16:02:15.925Z,32.40
2019-05-17T16:04:43.297Z,32.20
2019-05-17T16:07:10.661Z,32.10
2019-05-17T16:09:37.961Z,32.40
2019-05-17T16:12:05.339Z,33.60
2019-05-17T16:14:32.639Z,35.10
2019-05-17T16:17:00.015Z,35.40
2019-05-17T16:19:27.329Z,35.10
2019-05-17T16:21:54.831Z,34.10
2019-05-17T16:24:22.280Z,33.30
2019-05-17T16:26:49.666Z,36.00
2019-05-17T16:29:17.030Z,35.50
2019-05-17T16:31:44.242Z,35.50
2019-05-17T16:34:11.581Z,33.90
2019-05-17T16:36:38.889Z,34.50
2019-05-17T16:39:08.363Z,35.60
2019-05-17T16:41:35.782Z,34.20
2019-05-17T16:44:03.166Z,33.20
2019-05-17T16:46:30.650Z,34.70
2019-05-17T16:48:58.113Z,34.20
2019-05-17T16:51:25.433Z,32.50
2019-05-17T16:53:52.801Z,33.90
2019-05-17T16:56:20.245Z,33.70
2019-05-17T16:58:47.665Z,33.50
2019-05-17T17:01:15.091Z,34.30
2019-05-17T17:03:44.651Z,35.40
2019-05-17T17:06:12.327Z,37.00
2019-05-17T17:08:41.073Z,35.40
2019-05-17T17:11:08.437Z,36.20
2019-05-17T17:13:35.770Z,36.30
2019-05-17T17:16:03.337Z,37.40
2019-05-17T17:18:30.744Z,37.60
2019-05-17T17:20:58.009Z,38.40
2019-05-17T17:23:25.329Z,38.30
2019-05-17T17:25:52.707Z,40.60
2019-05-17T17:28:22.566Z,38.90
2019-05-17T17:30:49.381Z,38.70
2019-05-17T17:33:17.546Z,38.50
2019-05-17T17:35:45.803Z,39.60
2019-05-17T17:38:13.161Z,39.50
2019-05-17T17:40:40.496Z,38.60
2019-05-17T17:43:07.933Z,39.30
2019-05-17T17:45:35.345Z,39.50
2019-05-17T17:48:02.668Z,40.50
2019-05-17T17:50:30.053Z,40.70
2019-05-17T17:52:57.378Z,39.80
2019-05-17T17:55:24.731Z,40.20
2019-05-17T17:57:52.078Z,40.10
2019-05-17T18:00:20.263Z,40.20
2019-05-17T18:02:47.699Z,40.80
2019-05-17T18:05:15.092Z,40.90
2019-05-17T18:07:42.433Z,41.40
2019-05-17T18:10:11.966Z,41.70
2019-05-17T18:12:39.355Z,41.70
2019-05-17T18:15:08.923Z,42.90
2019-05-17T18:17:39.174Z,43.30
2019-05-17T18:20:05.722Z,43.30
2019-05-17T18:22:33.072Z,44.00
2019-05-17T18:25:00.476Z,43.20
2019-05-17T18:27:27.838Z,43.90
2019-05-17T18:29:55.168Z,43.30
2019-05-17T18:32:22.519Z,43.40
2019-05-17T18:34:49.882Z,43.80
2019-05-17T18:37:17.285Z,44.20
2019-05-17T18:39:44.662Z,44.30
2019-05-17T18:42:12.016Z,44.80
2019-05-17T18:44:39.537Z,45.40
2019-05-17T18:47:06.873Z,45.70
2019-05-17T18:49:34.227Z,46.00
2019-05-17T18:52:01.621Z,46.50
2019-05-17T18:54:29.027Z,46.90
2019-05-17T18:56:56.419Z,47.60
2019-05-17T18:59:23.754Z,48.30
2019-05-17T19:01:51.075Z,49.90
2019-05-17T19:04:18.589Z,49.10
2019-05-17T19:06:45.901Z,49.60
2019-05-17T19:09:13.278Z,50.60
2019-05-17T19:11:40.578Z,50.60
2019-05-17T19:14:07.927Z,50.50
2019-05-17T19:16:35.292Z,50.00
2019-05-17T19:19:02.613Z,50.50
2019-05-17T19:21:30.073Z,51.00
2019-05-17T19:23:57.442Z,50.70
2019-05-17T19:26:24.783Z,51.10
2019-05-17T19:28:52.553Z,51.70
2019-05-17T19:31:19.861Z,52.40
2019-05-17T19:33:47.550Z,54.20
2019-05-17T19:36:14.921Z,53.70
2019-05-17T19:38:42.283Z,54.30
2019-05-17T19:41:09.732Z,54.50
2019-05-17T19:43:37.068Z,54.30
2019-05-17T19:46:04.407Z,54.50
2019-05-17T19:48:32.069Z,54.80
2019-05-17T19:50:59.426Z,55.00
2019-05-17T19:53:26.832Z,55.30
2019-05-17T19:55:54.218Z,55.70
2019-05-17T19:58:21.637Z,56.40
2019-05-17T20:00:49.005Z,57.00
2019-05-17T20:03:16.377Z,58.10
2019-05-17T20:05:43.747Z,58.30
2019-05-17T20:08:11.158Z,58.90
2019-05-17T20:10:38.495Z,59.50
2019-05-17T20:13:05.953Z,59.80
2019-05-17T20:15:34.896Z,60.90
2019-05-17T20:18:02.599Z,62.20
2019-05-17T20:20:30.013Z,62.50
2019-05-17T20:22:57.676Z,62.90
2019-05-17T20:25:25.499Z,62.30
2019-05-17T20:27:52.829Z,62.30
2019-05-17T20:30:20.162Z,62.80
2019-05-17T20:32:47.612Z,62.70
2019-05-17T20:35:17.842Z,62.60
2019-05-17T20:37:44.264Z,62.10
2019-05-17T20:40:12.139Z,63.30
2019-05-17T20:42:39.660Z,63.00
2019-05-17T20:45:07.457Z,64.10
2019-05-17T20:47:34.902Z,64.70
2019-05-17T20:50:02.322Z,65.30
2019-05-17T20:52:29.782Z,67.20
2019-05-17T20:54:57.230Z,69.00
2019-05-17T20:57:24.561Z,69.50
2019-05-17T20:59:51.870Z,69.50
2019-05-17T21:02:19.255Z,68.80
2019-05-17T21:04:46.672Z,69.00
2019-05-17T21:07:14.017Z,70.60
2019-05-17T21:09:41.404Z,71.50
2019-05-17T21:12:08.716Z,71.30
2019-05-17T21:14:36.124Z,74.20
2019-05-17T21:17:03.471Z,73.70
2019-05-17T21:19:30.906Z,71.90
2019-05-17T21:21:58.540Z,71.20
2019-05-17T21:24:25.989Z,71.80
2019-05-17T21:26:53.318Z,73.20
2019-05-17T21:29:20.645Z,73.80
2019-05-17T21:31:48.000Z,75.00
2019-05-17T21:34:15.345Z,74.70
2019-05-17T21:36:42.656Z,75.50
2019-05-17T21:39:10.002Z,75.70
2019-05-17T21:41:37.354Z,75.60
2019-05-17T21:44:05.074Z,75.10
2019-05-17T21:46:32.377Z,75.00
2019-05-17T21:48:59.768Z,77.50
2019-05-17T21:51:27.141Z,79.20
2019-05-17T21:53:54.839Z,77.30
2019-05-17T21:56:22.280Z,76.80
2019-05-17T21:58:49.611Z,76.40
2019-05-17T22:01:22.104Z,77.30
2019-05-17T22:03:49.497Z,77.60
2019-05-17T22:06:17.086Z,77.90
2019-05-17T22:08:44.674Z,78.10
2019-05-17T22:11:12.235Z,78.20
2019-05-17T22:13:39.600Z,78.10
2019-05-17T22:16:19.047Z,77.60
2019-05-17T22:18:36.400Z,77.40
2019-05-17T22:21:03.749Z,77.10
2019-05-17T22:23:31.085Z,78.50
2019-05-17T22:25:58.456Z,78.10
2019-05-17T22:28:26.012Z,79.30
2019-05-17T22:30:53.357Z,77.80
2019-05-17T22:33:20.745Z,77.80
2019-05-17T22:35:48.333Z,77.80
2019-05-17T22:38:15.667Z,76.80
2019-05-17T22:40:42.984Z,74.90
2019-05-17T22:43:10.289Z,74.10
2019-05-17T22:45:37.646Z,72.90
2019-05-17T22:48:04.974Z,72.10
2019-05-17T22:50:32.333Z,73.80
2019-05-17T22:52:59.714Z,72.90
2019-05-17T22:55:27.057Z,73.60
2019-05-17T22:57:54.651Z,73.00
2019-05-17T23:00:22.128Z,73.90
2019-05-17T23:02:49.481Z,73.30
2019-05-17T23:05:21.888Z,72.80
2019-05-17T23:07:46.136Z,72.90
2019-05-17T23:10:13.636Z,72.30
2019-05-17T23:12:41.182Z,73.00
2019-05-17T23:15:08.631Z,72.80
2019-05-17T23:17:36.014Z,72.00
2019-05-17T23:20:03.847Z,71.80
2019-05-17T23:22:31.193Z,71.20
2019-05-17T23:24:58.680Z,71.30
2019-05-17T23:27:26.328Z,71.70
2019-05-17T23:29:53.668Z,71.70
2019-05-17T23:32:21.733Z,72.30
2019-05-17T23:34:49.228Z,72.20
2019-05-17T23:37:16.548Z,72.30
2019-05-17T23:39:43.891Z,72.20
2019-05-17T23:42:11.438Z,72.50
2019-05-17T23:44:38.776Z,72.40
2019-05-17T23:47:07.494Z,72.60
2019-05-17T23:49:35.027Z,72.90
2019-05-17T23:52:02.321Z,73.00
2019-05-17T23:54:29.660Z,73.00
2019-05-17T23:56:56.968Z,73.10
2019-05-17T23:59:24.529Z,73.30
